createdAt,value
2018-06-17T09:13:37.393Z,97331.03
2018-06-17T09:16:08.533Z,97333.55
2018-06-17T10:54:45.384Z,97330.89
2018-06-17T10:57:16.837Z,97328.76
2018-06-17T10:59:48.681Z,97334.75
2018-06-17T11:02:20.699Z,97324.80
2018-06-17T11:04:52.133Z,97339.63
2018-06-17T11:07:34.129Z,97320.73
2018-06-17T11:10:08.836Z,97322.08
2018-06-17T11:12:40.128Z,97320.61
2018-06-17T11:15:13.656Z,97331.53
2018-06-17T11:17:47.639Z,97320.44
2018-06-17T11:20:22.464Z,97311.22
2018-06-17T11:22:54.395Z,97304.08
2018-06-17T11:25:32.176Z,97313.47
2018-06-17T11:28:06.143Z,97316.24
2018-06-17T11:30:37.650Z,97308.17
2018-06-17T11:33:08.876Z,97311.09
2018-06-17T11:35:40.250Z,97310.11
2018-06-17T11:38:12.500Z,97305.31
2018-06-17T11:40:44.067Z,97305.22
2018-06-17T11:43:16.391Z,97297.57
2018-06-17T11:45:47.789Z,97303.92
2018-06-17T11:48:19.152Z,97298.13
2018-06-17T11:50:50.592Z,97298.97
2018-06-17T11:53:21.870Z,97297.19
2018-06-17T11:55:53.299Z,97299.64
2018-06-17T11:59:02.583Z,97302.44
2018-06-17T12:01:34.041Z,97298.39
2018-06-17T12:04:05.789Z,97293.17
2018-06-17T12:06:37.160Z,97288.81
2018-06-17T12:09:10.709Z,97280.66
2018-06-17T12:11:42.499Z,97278.66
2018-06-17T12:14:18.299Z,97278.80
2018-06-17T12:16:50.437Z,97278.36
2018-06-17T12:19:22.457Z,97281.72
2018-06-17T12:21:57.569Z,97283.30
2018-06-17T12:24:31.330Z,97283.23
2018-06-17T12:27:04.911Z,97280.25
2018-06-17T12:29:37.418Z,97271.13
2018-06-17T12:32:09.911Z,97276.69
2018-06-17T12:34:41.922Z,97271.11
2018-06-17T12:37:16.110Z,97269.73
2018-06-17T12:39:48.650Z,97270.98
2018-06-17T12:48:22.150Z,97268.80
2018-06-17T12:50:55.161Z,97258.35
2018-06-17T12:53:28.742Z,97259.37
2018-06-17T13:16:01.760Z,97250.44
2018-06-17T13:18:34.405Z,97240.34
2018-06-17T13:21:07.080Z,97239.73
2018-06-17T13:23:38.675Z,97238.69
2018-06-17T13:26:10.435Z,97241.74
2018-06-17T13:28:41.825Z,97235.85
2018-06-17T13:31:13.426Z,97250.11
2018-06-17T13:33:44.324Z,97247.39
2018-06-17T13:36:15.570Z,97251.55
2018-06-17T13:38:47.125Z,97249.96
2018-06-17T13:41:18.559Z,97246.53
2018-06-17T13:43:50.702Z,97244.36
2018-06-17T13:46:23.599Z,97234.93
2018-06-17T13:48:57.225Z,97238.66
2018-06-17T13:51:29.660Z,97237.27
2018-06-17T13:54:01.631Z,97235.49
2018-06-17T13:56:35.576Z,97237.87
2018-06-17T13:59:06.931Z,97230.77
2018-06-17T14:01:38.531Z,97225.53
2018-06-17T14:04:09.374Z,97227.59
2018-06-17T14:06:40.688Z,97221.67
2018-06-17T14:09:12.073Z,97222.00
2018-06-17T14:11:43.481Z,97226.22
2018-06-17T14:14:14.785Z,97222.91
2018-06-17T14:16:46.209Z,97214.25
2018-06-17T14:19:17.508Z,97218.31
2018-06-17T14:21:49.200Z,97221.38
2018-06-17T14:24:20.552Z,97213.86
2018-06-17T14:26:52.198Z,97215.69
2018-06-17T14:29:23.596Z,97204.44
2018-06-17T14:31:55.981Z,97207.37
2018-06-17T14:34:27.835Z,97212.59
2018-06-17T14:36:59.571Z,97201.74
2018-06-17T14:39:30.892Z,97199.20
2018-06-17T14:42:07.265Z,97192.14
2018-06-17T14:44:43.433Z,97183.50
2018-06-17T14:47:19.688Z,97192.82
2018-06-17T14:49:56.025Z,97193.32
2018-06-17T14:52:36.814Z,97180.66
2018-06-17T14:55:08.337Z,97180.91
2018-06-17T14:57:40.317Z,97169.39
2018-06-17T15:00:11.681Z,97166.27
2018-06-17T15:02:43.097Z,97169.61
2018-06-17T15:05:17.601Z,97170.44
2018-06-17T15:07:49.133Z,97175.33
2018-06-17T15:10:22.485Z,97181.27
2018-06-17T15:12:53.731Z,97185.25
2018-06-17T15:15:25.530Z,97176.98
2018-06-17T15:17:57.002Z,97181.46
2018-06-17T15:20:28.783Z,97179.25
2018-06-17T15:23:00.113Z,97180.36
2018-06-17T15:25:31.629Z,97177.63
2018-06-17T15:28:02.953Z,97170.40
2018-06-17T15:30:34.340Z,97180.97
2018-06-17T15:33:10.524Z,97172.77
2018-06-17T15:35:46.255Z,97173.00
2018-06-17T15:38:21.949Z,97166.94
2018-06-17T15:40:58.073Z,97169.53
2018-06-17T15:43:30.027Z,97169.53
2018-06-17T15:46:00.858Z,97174.41
2018-06-17T15:48:32.113Z,97174.15
2018-06-17T15:51:03.500Z,97183.56
2018-06-17T15:53:35.239Z,97185.93
2018-06-17T15:56:06.721Z,97190.55
2018-06-17T15:58:38.279Z,97193.58
2018-06-17T16:01:09.799Z,97191.90
2018-06-17T16:03:41.191Z,97195.70
2018-06-17T16:06:12.476Z,97195.28
2018-06-17T16:08:44.274Z,97199.16
2018-06-17T16:11:16.097Z,97196.77
2018-06-17T16:13:52.692Z,97188.61
2018-06-17T16:16:29.461Z,97190.88
2018-06-17T16:19:05.880Z,97190.92
2018-06-17T16:21:37.274Z,97189.20
2018-06-17T16:24:09.062Z,97181.87
2018-06-17T16:26:40.471Z,97184.53
2018-06-17T16:29:13.752Z,97175.69
2018-06-17T16:31:44.932Z,97175.94
2018-06-17T16:34:19.346Z,97180.33
2018-06-17T16:36:51.073Z,97174.91
2018-06-17T16:39:21.976Z,97178.50
2018-06-17T16:48:07.161Z,97190.89
2018-06-17T16:50:39.207Z,97191.77
2018-06-17T16:53:15.436Z,97199.91
2018-06-17T16:55:51.688Z,97192.80
2018-06-17T16:58:28.093Z,97193.67
2018-06-17T17:00:59.575Z,97195.77
2018-06-17T17:03:30.898Z,97201.50
2018-06-17T17:06:02.322Z,97195.87
2018-06-17T17:08:33.727Z,97202.20
2018-06-17T17:11:05.276Z,97200.16
2018-06-17T17:13:36.685Z,97194.01
2018-06-17T17:16:08.126Z,97193.87
2018-06-17T17:18:39.539Z,97194.01
2018-06-17T17:21:10.950Z,97197.66
2018-06-17T17:23:42.751Z,97202.50
2018-06-17T17:26:14.149Z,97205.05
2018-06-17T17:28:45.551Z,97210.42
2018-06-17T17:31:24.979Z,97211.91
2018-06-17T17:34:02.507Z,97214.13
2018-06-17T17:36:38.872Z,97212.19
2018-06-17T17:39:15.551Z,97221.48
2018-06-17T17:41:49.173Z,97224.27
2018-06-17T17:44:20.062Z,97224.38
2018-06-17T17:46:56.226Z,97227.59
2018-06-17T17:52:01.590Z,97229.67
2018-06-17T17:54:31.685Z,97227.13
2018-06-17T17:57:01.731Z,97224.17
2018-06-17T17:59:36.030Z,97226.00
2018-06-17T18:02:06.423Z,97228.88
2018-06-17T18:04:36.368Z,97239.08
2018-06-17T18:07:06.336Z,97229.14
2018-06-17T18:09:36.256Z,97225.70
2018-06-17T18:12:06.211Z,97228.41
2018-06-17T18:14:36.097Z,97230.31
2018-06-17T18:17:06.120Z,97230.44
2018-06-17T18:19:36.028Z,97235.85
2018-06-17T18:22:06.102Z,97234.44
2018-06-17T18:24:36.056Z,97231.81
2018-06-17T18:27:12.042Z,97236.59
2018-06-17T18:29:46.840Z,97233.66
2018-06-17T18:32:21.810Z,97229.53
2018-06-17T18:34:56.740Z,97237.89
2018-06-17T18:37:27.135Z,97243.77
2018-06-17T18:39:57.071Z,97241.58
2018-06-17T18:42:27.737Z,97248.53
2018-06-17T18:44:57.617Z,97251.66
2018-06-17T18:47:32.337Z,97249.73
2018-06-17T18:50:02.384Z,97253.07
2018-06-17T18:52:32.295Z,97254.16
2018-06-17T18:55:02.203Z,97257.73
2018-06-17T18:57:32.673Z,97265.96
2018-06-17T19:00:02.721Z,97260.36
2018-06-17T19:02:32.890Z,97266.49
2018-06-17T19:05:02.848Z,97265.53
2018-06-17T19:07:32.865Z,97266.34
2018-06-17T19:10:07.865Z,97282.49
2018-06-17T19:12:42.723Z,97274.92
2018-06-17T19:15:17.569Z,97281.72
2018-06-17T19:17:52.606Z,97292.14
2018-06-17T19:20:22.713Z,97297.09
2018-06-17T19:22:52.653Z,97295.12
2018-06-17T19:25:24.865Z,97299.27
2018-06-17T19:27:55.079Z,97301.27
2018-06-17T19:30:27.907Z,97300.16
2018-06-17T19:32:58.009Z,97298.31
2018-06-17T19:35:28.590Z,97287.42
2018-06-17T19:37:59.006Z,97300.20
2018-06-17T19:40:29.594Z,97305.23
2018-06-17T19:42:59.775Z,97303.94
2018-06-17T19:45:29.832Z,97310.97
2018-06-17T19:47:59.925Z,97313.65
2018-06-17T19:50:35.691Z,97320.25
2018-06-17T19:53:10.786Z,97320.67
2018-06-17T19:55:45.973Z,97323.31
2018-06-17T19:58:20.904Z,97322.41
2018-06-17T20:00:53.897Z,97324.80
2018-06-17T20:03:23.960Z,97322.72
2018-06-17T20:05:55.374Z,97325.77
2018-06-17T20:08:25.803Z,97332.02
2018-06-17T20:10:55.882Z,97328.20
2018-06-17T20:13:26.260Z,97327.22
2018-06-17T20:15:56.413Z,97334.41
2018-06-17T20:18:28.316Z,97326.32
2018-06-17T20:20:58.543Z,97323.22
2018-06-17T20:23:29.047Z,97329.26
2018-06-17T20:26:00.417Z,97335.42
2018-06-17T20:28:30.562Z,97333.09
2018-06-17T20:31:05.385Z,97339.05
2018-06-17T20:33:40.513Z,97347.27
2018-06-17T20:36:16.351Z,97350.91
2018-06-17T20:38:53.729Z,97344.39
2018-06-17T20:43:36.349Z,97351.25
2018-06-17T20:46:06.335Z,97345.16
2018-06-17T20:48:36.292Z,97343.70
2018-06-17T20:51:06.503Z,97351.14
2018-06-17T20:53:36.587Z,97351.95
2018-06-17T20:56:07.349Z,97355.55
2018-06-17T20:58:37.342Z,97356.87
2018-06-17T21:01:07.397Z,97352.32
2018-06-17T21:03:37.505Z,97355.00
2018-06-17T21:06:08.479Z,97354.44
2018-06-17T21:08:38.532Z,97355.64
2018-06-17T21:11:08.541Z,97354.55
2018-06-17T21:13:38.566Z,97354.16
2018-06-17T21:16:08.677Z,97357.16
2018-06-17T21:18:43.509Z,97357.98
2018-06-17T21:21:18.385Z,97357.98
2018-06-17T21:23:53.435Z,97359.77
2018-06-17T21:26:28.391Z,97359.77
2018-06-17T21:28:58.491Z,97367.34
2018-06-17T21:31:28.960Z,97359.36
2018-06-17T21:33:59.058Z,97365.25
2018-06-17T21:36:29.570Z,97362.35
2018-06-17T21:38:59.678Z,97365.33
2018-06-17T21:41:29.698Z,97358.35
2018-06-17T21:43:59.729Z,97357.06
2018-06-17T21:46:29.912Z,97364.46
2018-06-17T21:49:00.006Z,97366.52
2018-06-17T21:51:30.018Z,97361.09
2018-06-17T21:54:00.054Z,97363.30
2018-06-17T22:08:48.882Z,97374.97
2018-06-17T22:11:23.874Z,97371.14
2018-06-17T22:13:58.912Z,97369.04
2018-06-17T22:16:34.424Z,97365.83
2018-06-17T22:19:04.654Z,97369.80
2018-06-17T22:21:34.843Z,97364.41
2018-06-17T22:24:05.370Z,97362.05
2018-06-17T22:26:35.389Z,97359.72
2018-06-17T22:29:05.387Z,97357.95
2018-06-17T22:31:35.695Z,97364.64
2018-06-17T22:34:05.751Z,97367.33
2018-06-17T22:36:35.949Z,97363.45
2018-06-17T22:39:08.672Z,97369.02
2018-06-17T22:41:40.381Z,97366.09
2018-06-17T22:44:10.572Z,97365.98
2018-06-17T22:46:40.536Z,97367.91
2018-06-17T22:49:10.444Z,97367.86
2018-06-17T22:51:40.486Z,97371.03
2018-06-17T22:54:21.280Z,97356.41
2018-06-17T22:56:56.267Z,97355.84
2018-06-17T22:59:31.168Z,97356.59
2018-06-17T23:02:06.143Z,97358.13
2018-06-17T23:04:41.108Z,97358.80
2018-06-17T23:07:16.237Z,97360.94
2018-06-17T23:09:48.753Z,97356.87
2018-06-17T23:12:18.754Z,97359.42
2018-06-17T23:14:48.691Z,97356.64
2018-06-17T23:17:18.740Z,97356.45
2018-06-17T23:19:48.898Z,97362.81
2018-06-17T23:22:18.896Z,97356.69
2018-06-17T23:24:49.063Z,97355.99
2018-06-17T23:27:19.034Z,97356.45
2018-06-17T23:29:48.926Z,97357.06
2018-06-17T23:32:19.235Z,97356.11
2018-06-17T23:34:49.280Z,97361.12
2018-06-17T23:37:19.264Z,97353.09
2018-06-17T23:39:49.144Z,97354.01
2018-06-17T23:42:20.618Z,97352.89
2018-06-17T23:44:50.950Z,97357.08
2018-06-17T23:47:26.390Z,97354.28
2018-06-17T23:50:01.470Z,97347.30
2018-06-17T23:52:36.497Z,97347.27
2018-06-17T23:55:13.754Z,97349.63
2018-06-17T23:57:44.782Z,97346.75
